createdAt,value
2019-03-17T00:00:29.885Z,15.80
2019-03-17T00:03:03.546Z,14.38
2019-03-17T00:05:37.796Z,13.48
2019-03-17T00:08:11.270Z,16.15
2019-03-17T00:10:44.899Z,12.25
2019-03-17T00:13:18.659Z,13.40
2019-03-17T00:15:59.825Z,15.83
2019-03-17T00:18:38.492Z,14.07
2019-03-17T00:21:14.209Z,15.88
2019-03-17T00:23:47.680Z,19.30
2019-03-17T00:26:21.500Z,18.05
2019-03-17T00:28:56.042Z,19.25
2019-03-17T00:31:29.542Z,16.80
2019-03-17T00:34:03.253Z,17.98
2019-03-17T00:36:37.127Z,15.65
2019-03-17T00:39:10.668Z,15.85
2019-03-17T00:41:44.265Z,15.85
2019-03-17T00:44:17.816Z,18.57
2019-03-17T00:46:51.331Z,21.85
2019-03-17T00:49:26.173Z,21.05
2019-03-17T00:51:59.672Z,19.30
2019-03-17T00:54:33.229Z,20.45
2019-03-17T00:57:07.289Z,18.95
2019-03-17T00:59:40.920Z,17.82
2019-03-17T01:02:14.310Z,20.25
2019-03-17T01:04:56.114Z,23.57
2019-03-17T01:07:23.226Z,25.68
2019-03-17T01:09:57.605Z,23.12
2019-03-17T01:12:31.174Z,21.05
2019-03-17T01:15:04.705Z,20.27
2019-03-17T01:17:38.229Z,19.50
2019-03-17T01:20:11.706Z,20.43
2019-03-17T01:22:45.071Z,21.75
2019-03-17T01:25:18.415Z,21.57
2019-03-17T01:27:51.811Z,25.92
2019-03-17T01:30:25.222Z,22.48
2019-03-17T01:32:59.794Z,23.47
2019-03-17T01:35:33.130Z,22.65
2019-03-17T01:38:06.635Z,18.48
2019-03-17T01:40:40.170Z,16.20
2019-03-17T01:43:13.537Z,18.67
2019-03-17T01:45:48.249Z,15.85
2019-03-17T01:48:21.592Z,16.15
2019-03-17T01:50:55.131Z,16.70
2019-03-17T01:53:28.540Z,15.93
2019-03-17T01:56:01.936Z,15.60
2019-03-17T01:58:35.303Z,16.85
2019-03-17T02:01:11.758Z,16.80
2019-03-17T02:03:44.845Z,12.15
2019-03-17T02:06:19.247Z,13.90
2019-03-17T02:08:53.328Z,13.80
2019-03-17T02:11:26.902Z,10.25
2019-03-17T02:14:00.728Z,11.50
2019-03-17T02:16:34.246Z,12.93
2019-03-17T02:19:07.748Z,12.80
2019-03-17T02:21:41.350Z,12.95
2019-03-17T02:24:14.775Z,11.50
2019-03-17T02:26:48.283Z,11.80
2019-03-17T02:29:21.647Z,11.78
2019-03-17T02:31:55.052Z,13.53
2019-03-17T02:34:28.458Z,9.75
2019-03-17T02:37:02.028Z,9.68
2019-03-17T02:39:35.741Z,10.03
2019-03-17T02:42:09.290Z,11.30
2019-03-17T02:44:42.714Z,11.03
2019-03-17T02:47:16.431Z,10.48
2019-03-17T02:49:49.770Z,12.25
2019-03-17T02:52:23.489Z,10.08
2019-03-17T02:54:57.282Z,9.18
2019-03-17T02:57:30.651Z,8.70
2019-03-17T03:00:04.093Z,10.03
2019-03-17T03:02:38.561Z,8.78
2019-03-17T03:05:12.106Z,7.97
2019-03-17T03:07:45.515Z,10.28
2019-03-17T03:10:19.353Z,11.22
2019-03-17T03:12:52.805Z,9.43
2019-03-17T03:15:26.301Z,8.15
2019-03-17T03:17:59.879Z,8.80
2019-03-17T03:20:33.450Z,9.95
2019-03-17T03:23:08.413Z,8.65
2019-03-17T03:25:42.825Z,10.95
2019-03-17T03:28:16.305Z,10.75
2019-03-17T03:30:49.804Z,10.30
2019-03-17T03:33:23.368Z,9.73
2019-03-17T03:36:09.765Z,10.13
2019-03-17T03:38:31.997Z,9.25
2019-03-17T03:41:05.362Z,8.75
2019-03-17T03:43:39.371Z,7.37
2019-03-17T03:46:12.877Z,8.60
2019-03-17T03:48:46.343Z,6.42
2019-03-17T03:51:20.473Z,6.30
2019-03-17T03:53:55.110Z,9.15
2019-03-17T03:56:28.612Z,10.18
2019-03-17T03:59:02.067Z,8.80
2019-03-17T04:01:35.815Z,10.95
2019-03-17T04:04:09.225Z,8.53
2019-03-17T04:06:42.689Z,9.13
2019-03-17T04:09:16.072Z,9.78
2019-03-17T04:11:49.564Z,10.23
2019-03-17T04:14:23.051Z,8.38
2019-03-17T04:16:56.525Z,6.72
2019-03-17T04:19:29.918Z,8.65
2019-03-17T04:22:03.710Z,6.85
2019-03-17T04:24:37.243Z,10.30
2019-03-17T04:27:10.644Z,7.37
2019-03-17T04:29:44.479Z,7.35
2019-03-17T04:32:18.260Z,11.88
2019-03-17T04:34:51.734Z,11.03
2019-03-17T04:37:25.253Z,10.93
2019-03-17T04:39:58.752Z,9.05
2019-03-17T04:42:32.642Z,9.38
2019-03-17T04:45:06.663Z,6.45
2019-03-17T04:47:40.159Z,6.85
2019-03-17T04:50:13.592Z,10.50
2019-03-17T04:52:46.978Z,10.58
2019-03-17T04:55:20.406Z,9.83
2019-03-17T04:57:54.160Z,8.43
2019-03-17T05:00:28.688Z,11.95
2019-03-17T05:03:02.321Z,12.10
2019-03-17T05:05:35.829Z,16.10
2019-03-17T05:08:09.277Z,24.63
2019-03-17T05:10:42.701Z,105.32
2019-03-17T05:13:16.128Z,91.28
2019-03-17T05:15:49.563Z,55.23
2019-03-17T05:18:23.000Z,114.35
2019-03-17T05:20:56.470Z,134.78
2019-03-17T05:23:30.340Z,168.90
2019-03-17T05:26:03.894Z,149.25
2019-03-17T05:28:37.747Z,153.62
2019-03-17T05:31:11.278Z,77.22
2019-03-17T05:33:44.820Z,44.15
2019-03-17T05:36:18.246Z,23.55
2019-03-17T05:38:51.837Z,13.40
2019-03-17T05:41:25.689Z,18.40
2019-03-17T05:43:59.133Z,18.23
2019-03-17T05:46:32.678Z,17.27
2019-03-17T05:49:06.137Z,28.07
2019-03-17T05:51:41.029Z,21.57
2019-03-17T05:54:15.433Z,9.03
2019-03-17T05:56:48.925Z,12.75
2019-03-17T05:59:22.374Z,12.40
2019-03-17T06:02:22.811Z,11.95
2019-03-17T06:04:56.365Z,9.10
2019-03-17T06:07:29.947Z,11.93
2019-03-17T06:10:03.846Z,8.30
2019-03-17T06:12:37.820Z,12.13
2019-03-17T06:15:12.486Z,9.33
2019-03-17T06:17:45.980Z,10.03
2019-03-17T06:20:19.412Z,9.10
2019-03-17T06:22:52.888Z,12.58
2019-03-17T06:25:26.724Z,10.25
2019-03-17T06:28:00.257Z,8.73
2019-03-17T06:30:34.596Z,10.68
2019-03-17T06:33:08.659Z,9.43
2019-03-17T06:35:42.701Z,9.50
2019-03-17T06:38:16.589Z,9.43
2019-03-17T06:40:51.067Z,7.97
2019-03-17T06:43:25.415Z,7.37
2019-03-17T06:45:59.979Z,8.50
2019-03-17T06:52:27.911Z,7.40
2019-03-17T07:21:22.524Z,5.60
2019-03-17T07:23:57.791Z,7.37
2019-03-17T07:26:32.313Z,6.40
2019-03-17T07:29:07.861Z,8.58
2019-03-17T07:31:41.579Z,7.78
2019-03-17T07:34:15.055Z,7.03
2019-03-17T07:37:15.771Z,7.50
2019-03-17T07:40:23.712Z,5.72
2019-03-17T07:43:35.815Z,7.08
2019-03-17T07:46:41.842Z,6.92
2019-03-17T08:06:38.323Z,9.10
2019-03-17T08:09:44.509Z,7.47
2019-03-17T08:12:25.935Z,8.25
2019-03-17T08:15:16.558Z,6.60
2019-03-17T08:17:53.041Z,7.37
2019-03-17T08:20:27.133Z,6.97
2019-03-17T08:23:00.672Z,5.90
2019-03-17T08:25:35.397Z,6.25
2019-03-17T08:28:16.009Z,7.75
2019-03-17T08:30:53.441Z,5.85
2019-03-17T08:33:29.352Z,7.47
2019-03-17T08:36:03.697Z,6.33
2019-03-17T08:38:37.364Z,6.37
2019-03-17T08:49:18.989Z,7.55
2019-03-17T08:51:52.306Z,8.98
2019-03-17T08:54:31.119Z,6.85
2019-03-17T08:57:04.722Z,4.47
2019-03-17T08:59:38.079Z,5.72
2019-03-17T09:02:14.020Z,5.53
2019-03-17T09:04:58.528Z,5.28
2019-03-17T09:07:45.427Z,5.17
2019-03-17T09:10:22.658Z,11.43
2019-03-17T09:12:56.013Z,10.88
2019-03-17T09:15:38.321Z,11.63
2019-03-17T09:18:13.516Z,4.35
2019-03-17T09:20:47.180Z,7.50
2019-03-17T09:23:20.350Z,5.15
2019-03-17T09:25:53.524Z,4.35
2019-03-17T09:28:32.282Z,5.58
2019-03-17T09:31:07.609Z,4.80
2019-03-17T09:33:41.299Z,5.22
2019-03-17T09:36:14.651Z,5.10
2019-03-17T09:38:47.912Z,5.65
2019-03-17T09:41:30.948Z,5.78
2019-03-17T09:44:09.798Z,5.05
2019-03-17T09:46:44.188Z,5.95
2019-03-17T09:49:20.849Z,9.35
2019-03-17T09:51:57.757Z,5.37
2019-03-17T09:54:33.761Z,7.37
2019-03-17T09:57:07.044Z,4.58
2019-03-17T09:59:41.822Z,4.72
2019-03-17T10:02:15.310Z,5.42
2019-03-17T10:04:48.512Z,6.80
2019-03-17T10:07:22.727Z,5.15
2019-03-17T10:09:56.314Z,6.28
2019-03-17T10:12:29.665Z,7.28
2019-03-17T10:15:02.944Z,5.25
2019-03-17T10:17:36.474Z,4.47
2019-03-17T10:20:13.833Z,4.55
2019-03-17T10:22:46.972Z,5.10
2019-03-17T10:25:20.105Z,5.65
2019-03-17T10:27:53.229Z,3.98
2019-03-17T10:30:26.589Z,5.58
2019-03-17T10:33:01.446Z,3.92
2019-03-17T10:35:34.688Z,2.92
2019-03-17T10:38:07.893Z,3.22
2019-03-17T10:40:41.053Z,2.62
2019-03-17T10:43:15.230Z,5.17
2019-03-17T10:45:48.452Z,4.22
2019-03-17T10:48:21.689Z,2.85
2019-03-17T10:50:54.941Z,3.70
2019-03-17T10:53:28.185Z,36.50
2019-03-17T10:56:01.340Z,29.80
2019-03-17T10:58:34.426Z,18.02
2019-03-17T11:01:07.674Z,8.73
2019-03-17T11:03:41.919Z,10.40
2019-03-17T11:06:15.352Z,5.55
2019-03-17T11:08:49.023Z,5.85
2019-03-17T11:11:26.651Z,5.80
2019-03-17T11:17:21.696Z,3.25
2019-03-17T11:19:55.591Z,7.33
2019-03-17T11:22:31.615Z,5.67
2019-03-17T11:25:05.857Z,6.30
2019-03-17T11:27:41.819Z,5.05
2019-03-17T11:30:15.085Z,6.80
2019-03-17T11:32:48.208Z,7.17
2019-03-17T11:35:22.314Z,12.28
2019-03-17T11:37:55.335Z,7.78
2019-03-17T11:40:28.258Z,5.55
2019-03-17T11:43:01.770Z,4.65
2019-03-17T11:45:35.680Z,8.30
2019-03-17T11:48:08.691Z,7.78
2019-03-17T11:50:41.755Z,5.85
2019-03-17T11:53:16.275Z,7.35
2019-03-17T11:55:49.790Z,5.78
2019-03-17T11:58:26.575Z,6.45
2019-03-17T12:01:02.070Z,108.45
2019-03-17T12:03:35.273Z,24.55
2019-03-17T12:06:08.869Z,10.43
2019-03-17T12:08:43.015Z,6.90
2019-03-17T12:11:16.344Z,3.17
2019-03-17T12:13:49.527Z,4.60
2019-03-17T12:16:23.548Z,8.30
2019-03-17T12:18:57.630Z,5.62
2019-03-17T12:21:30.764Z,5.75
2019-03-17T12:24:04.035Z,3.85
2019-03-17T12:26:38.326Z,4.95
2019-03-17T12:29:11.824Z,5.35
2019-03-17T12:31:45.010Z,7.40
2019-03-17T12:34:27.797Z,8.58
2019-03-17T12:36:52.989Z,5.75
2019-03-17T12:39:26.081Z,4.40
2019-03-17T12:41:59.210Z,7.03
2019-03-17T12:44:33.723Z,5.25
2019-03-17T12:47:07.221Z,3.70
2019-03-17T12:49:40.335Z,4.85
2019-03-17T12:52:13.852Z,2.37
2019-03-17T12:54:47.953Z,5.22
2019-03-17T12:57:21.020Z,3.77
2019-03-17T12:59:54.204Z,4.75
2019-03-17T13:02:27.340Z,3.17
2019-03-17T13:05:00.471Z,8.18
2019-03-17T13:07:34.457Z,3.58
2019-03-17T13:10:15.715Z,9.73
2019-03-17T13:12:43.667Z,6.60
2019-03-17T13:15:16.730Z,4.90
2019-03-17T13:17:49.839Z,4.67
2019-03-17T13:20:22.875Z,8.23
2019-03-17T13:22:55.956Z,5.58
2019-03-17T13:25:29.066Z,5.28
2019-03-17T13:28:02.200Z,4.47
2019-03-17T13:30:35.358Z,7.90
2019-03-17T13:33:08.862Z,17.50
2019-03-17T13:35:41.949Z,13.80
2019-03-17T13:38:16.041Z,9.63
2019-03-17T13:40:49.286Z,10.35
2019-03-17T13:43:22.330Z,7.10
2019-03-17T13:45:55.490Z,6.40
2019-03-17T13:48:28.577Z,8.93
2019-03-17T13:51:02.342Z,10.30
2019-03-17T13:53:35.502Z,10.03
2019-03-17T13:56:08.978Z,8.05
2019-03-17T13:58:42.055Z,16.27
2019-03-17T14:01:15.066Z,13.83
2019-03-17T14:03:47.943Z,10.75
2019-03-17T14:06:20.790Z,12.05
2019-03-17T14:08:54.175Z,10.25
2019-03-17T14:11:27.083Z,9.20
2019-03-17T14:14:00.263Z,9.45
2019-03-17T14:16:36.338Z,5.65
2019-03-17T14:19:11.088Z,13.05
2019-03-17T14:21:44.250Z,18.12
2019-03-17T14:24:17.437Z,13.20
2019-03-17T14:26:50.672Z,14.23
2019-03-17T14:29:24.035Z,9.33
2019-03-17T14:31:57.122Z,16.70
2019-03-17T14:34:30.204Z,12.63
2019-03-17T14:37:03.320Z,19.80
2019-03-17T14:39:36.342Z,16.52
2019-03-17T14:42:09.447Z,10.65
2019-03-17T14:44:42.735Z,16.20
2019-03-17T14:47:15.918Z,9.80
2019-03-17T14:49:48.990Z,88.97
2019-03-17T14:52:22.128Z,50.40
2019-03-17T14:54:55.223Z,83.12
2019-03-17T14:57:28.360Z,26.23
2019-03-17T15:00:01.477Z,15.60
2019-03-17T15:02:34.697Z,17.02
2019-03-17T15:05:08.572Z,12.82
2019-03-17T15:07:41.763Z,12.13
2019-03-17T15:10:16.983Z,18.10
2019-03-17T15:12:51.595Z,63.80
2019-03-17T15:15:24.729Z,47.13
2019-03-17T15:17:57.768Z,39.00
2019-03-17T15:20:31.950Z,48.50
2019-03-17T15:23:05.550Z,75.12
2019-03-17T15:25:39.053Z,34.40
2019-03-17T15:28:23.563Z,33.08
2019-03-17T15:31:10.973Z,36.65
2019-03-17T15:33:37.233Z,27.75
2019-03-17T15:36:11.423Z,14.03
2019-03-17T15:38:47.273Z,16.82
2019-03-17T15:41:26.635Z,11.85
2019-03-17T15:44:05.390Z,10.90
2019-03-17T15:46:39.867Z,13.50
2019-03-17T15:49:14.529Z,11.93
2019-03-17T15:51:48.081Z,35.65
2019-03-17T15:54:21.749Z,20.12
2019-03-17T15:56:55.674Z,17.77
2019-03-17T15:59:28.977Z,27.62
2019-03-17T16:02:03.695Z,17.07
2019-03-17T16:04:37.245Z,20.97
2019-03-17T16:07:10.729Z,18.85
2019-03-17T16:09:44.483Z,20.37
2019-03-17T16:12:17.962Z,25.05
2019-03-17T16:14:51.567Z,28.40
2019-03-17T16:17:25.133Z,26.45
2019-03-17T16:19:58.751Z,29.63
2019-03-17T16:22:32.296Z,57.58
2019-03-17T16:25:07.310Z,177.07
2019-03-17T16:27:40.747Z,223.82
2019-03-17T16:30:20.474Z,241.25
2019-03-17T16:32:57.038Z,199.45
2019-03-17T16:35:30.597Z,179.03
2019-03-17T16:38:04.140Z,84.25
2019-03-17T16:40:43.210Z,74.12
2019-03-17T16:43:20.477Z,73.85
2019-03-17T16:46:20.836Z,49.65
2019-03-17T17:10:07.333Z,63.92
2019-03-17T17:20:17.611Z,30.48
2019-03-17T17:26:36.535Z,74.90
2019-03-17T17:29:10.232Z,27.50
2019-03-17T17:32:00.037Z,23.75
2019-03-17T17:34:33.291Z,35.80
2019-03-17T17:37:06.608Z,35.98
2019-03-17T17:39:39.817Z,35.38
2019-03-17T17:42:29.305Z,34.80
2019-03-17T17:45:10.206Z,29.15
2019-03-17T17:47:44.548Z,10.30
2019-03-17T17:50:18.599Z,29.90
2019-03-17T17:52:51.969Z,27.17
2019-03-17T17:55:25.210Z,70.10
2019-03-17T17:57:58.485Z,93.58
2019-03-17T18:00:35.277Z,9.68
2019-03-17T18:03:09.701Z,6.35
2019-03-17T18:05:43.198Z,8.48
2019-03-17T18:08:16.647Z,16.57
2019-03-17T18:10:50.021Z,10.80
2019-03-17T18:13:23.319Z,4.85
2019-03-17T18:15:56.617Z,6.80
2019-03-17T18:18:29.859Z,6.03
2019-03-17T18:21:03.477Z,7.45
2019-03-17T18:23:36.848Z,16.15
2019-03-17T18:26:10.451Z,13.40
2019-03-17T18:28:43.844Z,103.10
2019-03-17T18:32:58.898Z,173.45
2019-03-17T18:55:20.778Z,22.67
2019-03-17T19:02:38.749Z,25.68
2019-03-17T19:06:34.140Z,9.48
2019-03-17T19:09:35.224Z,5.20
2019-03-17T19:12:12.796Z,3.50
2019-03-17T19:14:46.613Z,8.08
2019-03-17T19:17:22.095Z,9.18
2019-03-17T19:20:02.459Z,16.60
2019-03-17T19:22:36.799Z,25.10
2019-03-17T19:25:18.755Z,20.70
2019-03-17T19:27:52.774Z,17.60
2019-03-17T19:30:27.284Z,21.77
2019-03-17T19:33:01.281Z,25.35
2019-03-17T19:35:35.165Z,75.97
2019-03-17T19:38:09.622Z,81.87
2019-03-17T19:40:45.447Z,63.65
2019-03-17T19:43:19.047Z,44.70
2019-03-17T19:45:52.757Z,17.55
2019-03-17T19:48:27.432Z,32.08
2019-03-17T19:51:01.588Z,20.60
2019-03-17T19:53:35.420Z,21.45
2019-03-17T19:56:08.923Z,19.40
2019-03-17T19:58:43.443Z,11.48
2019-03-17T20:01:19.900Z,20.52
2019-03-17T20:03:54.450Z,14.98
2019-03-17T20:06:28.144Z,16.82
2019-03-17T20:09:02.260Z,13.45
2019-03-17T20:11:36.857Z,16.62
2019-03-17T20:14:10.691Z,15.98
2019-03-17T20:16:44.461Z,16.07
2019-03-17T20:19:17.907Z,18.55
2019-03-17T20:21:51.490Z,14.30
2019-03-17T20:24:25.160Z,12.65
2019-03-17T20:26:58.737Z,11.53
2019-03-17T20:29:32.417Z,10.55
2019-03-17T20:32:06.168Z,16.15
2019-03-17T20:34:40.017Z,13.22
2019-03-17T20:37:13.543Z,11.65
2019-03-17T20:39:47.091Z,10.93
2019-03-17T20:42:21.070Z,19.70
2019-03-17T20:44:55.521Z,12.80
2019-03-17T20:47:29.070Z,14.43
2019-03-17T20:50:02.660Z,12.63
2019-03-17T20:52:36.140Z,13.58
2019-03-17T20:55:09.892Z,9.63
2019-03-17T20:57:43.395Z,9.23
2019-03-17T21:00:17.003Z,10.78
2019-03-17T21:02:50.928Z,11.55
2019-03-17T21:05:24.443Z,11.40
2019-03-17T21:07:58.463Z,16.55
2019-03-17T21:10:32.121Z,8.83
2019-03-17T21:13:09.390Z,15.00
2019-03-17T21:15:42.520Z,16.62
2019-03-17T21:18:15.701Z,17.45
2019-03-17T21:20:48.861Z,13.10
2019-03-17T21:23:22.106Z,7.15
2019-03-17T21:25:55.297Z,8.63
2019-03-17T21:28:28.560Z,13.68
2019-03-17T21:31:01.948Z,6.95
2019-03-17T21:33:35.120Z,8.15
2019-03-17T21:36:08.316Z,10.45
2019-03-17T21:38:41.465Z,9.23
2019-03-17T21:41:14.586Z,8.60
2019-03-17T21:43:58.932Z,7.92
2019-03-17T21:46:22.547Z,13.38
2019-03-17T21:48:57.232Z,11.08
2019-03-17T21:51:30.384Z,9.30
2019-03-17T21:54:03.531Z,14.60
2019-03-17T21:56:36.664Z,11.68
2019-03-17T21:59:09.806Z,14.43
2019-03-17T22:01:42.930Z,14.40
2019-03-17T22:04:16.160Z,13.43
2019-03-17T22:06:49.369Z,12.43
2019-03-17T22:09:22.471Z,9.88
2019-03-17T22:11:56.511Z,11.53
2019-03-17T22:14:29.650Z,9.55
2019-03-17T22:17:02.767Z,11.68
2019-03-17T22:19:35.921Z,14.13
2019-03-17T22:22:09.205Z,13.05
2019-03-17T22:24:42.394Z,10.38
2019-03-17T22:27:15.535Z,10.30
2019-03-17T22:29:49.056Z,9.63
2019-03-17T22:32:22.531Z,10.82
2019-03-17T22:34:55.686Z,10.85
2019-03-17T22:37:28.874Z,9.88
2019-03-17T22:40:02.092Z,14.45
2019-03-17T22:42:35.264Z,10.70
2019-03-17T22:45:09.069Z,12.15
2019-03-17T22:47:42.242Z,10.85
2019-03-17T22:50:15.480Z,11.60
2019-03-17T22:52:48.614Z,9.78
2019-03-17T22:55:21.769Z,10.68
2019-03-17T22:57:54.952Z,12.60
2019-03-17T23:00:44.785Z,10.75
2019-03-17T23:03:19.119Z,14.50
2019-03-17T23:05:52.407Z,11.85
2019-03-17T23:08:25.748Z,13.05
2019-03-17T23:10:59.090Z,11.85
2019-03-17T23:13:32.565Z,7.60
2019-03-17T23:16:05.830Z,11.48
2019-03-17T23:18:39.151Z,8.88
2019-03-17T23:21:12.767Z,10.53
2019-03-17T23:23:46.917Z,9.43
2019-03-17T23:26:20.201Z,12.63
2019-03-17T23:28:53.511Z,10.68
2019-03-17T23:31:26.753Z,13.00
2019-03-17T23:34:00.131Z,9.85
2019-03-17T23:36:33.410Z,9.95
2019-03-17T23:39:07.940Z,17.50
2019-03-17T23:41:41.227Z,22.27
2019-03-17T23:44:14.608Z,65.87
2019-03-17T23:46:47.886Z,51.18
2019-03-17T23:49:21.311Z,45.25
2019-03-17T23:51:55.672Z,29.77
2019-03-17T23:54:29.167Z,36.05
2019-03-17T23:57:02.474Z,22.55
2019-03-17T23:59:36.028Z,32.88
